Harrisburg, IL

11:06 PM CDT on May 25, 2015 (GMT -0500)
KILHARRI2 | | Change Station
CLOSE
Current Station
Personal Weather Station
Location: Harrisburg, IL
Elevation: 400 ft
Nearby Weather Stations

Elev 400 ft 37.74 °N, 88.54 °W | Updated 6 minutes ago

Partly Cloudy
Partly Cloudy
69.9 °F
Feels Like 69.9 °F
N
4.0
Wind Variable Wind from ESE
Gusts 12.0 mph

Today
High -- | Low -- °F
--% Chance of Precip.
Yesterday
High -- | Low -- °F
Precip. -- in
5:37 AM 8:05 PM
First Quarter, 54% visible
Pressure 30.04 in
Visibility 10.0 miles
Clouds Clear
Dew Point 67 °F
Humidity 90%
Rainfall 0.07 in
Snow Depth Not available.
UV 0 out of 12
Pollen 1.90 out of 12
Air Quality Not available.
Flu Activity Sporadic
METAR KHSB 260355Z AUTO 13006KT 10SM CLR 20/20 A3004 RMK AO2 T02030200

More Conditions Fewer Conditions

Pressure 30.04 in
Visibility 10.0 miles
Clouds Clear
Dew Point 67 °F
Humidity 90%
Rainfall 0.07 in
Snow Depth Not available.
UV 0 out of 12
Pollen 1.90 out of 12
Air Quality Not available.
Flu Activity Sporadic
METAR KHSB 260355Z AUTO 13006KT 10SM CLR 20/20 A3004 RMK AO2 T02030200

More Conditions Fewer Conditions

10-Day Weather Forecast

Almanac

Astronomy

May. 25, 2015 Rise Set
Actual Time
Civil Twilight
Nautical Twilight
Astronomical Twilight
Moon
Length of Visible Light
Length of Day
Tomorrow will be .
, % of the Moon is Illuminated

Today's Extremes

State Highs State Lows

Community

WunderPhotos

Upload Photos

1,824,277 photos uploaded!

WunderBlogs® & News

Nearby

Air Quality

  Air Quality AQ Index Pollutant
Not available.

Snow Depth

Station Depth Elevation

Earthquake Activity

City Distance Mag. Time & Date
Minimum magnitude displayed is 2.5.

Coastal Water Temperatures

Place Temperature

Stations

Nearby Weather Stations

Station Location Temp. Windchill Dew Point Humidity Wind Precip. Elev Updated Type